createdAt,value
2023-11-19T00:00:00.971Z,85.19
2023-11-19T00:02:28.024Z,85.28
2023-11-19T00:04:54.896Z,84.94
2023-11-19T00:07:22.026Z,84.70
2023-11-19T00:09:49.126Z,84.78
2023-11-19T00:12:15.852Z,84.70
2023-11-19T00:14:42.595Z,84.71
2023-11-19T00:17:09.096Z,84.52
2023-11-19T00:19:35.585Z,84.59
2023-11-19T00:22:04.150Z,84.78
2023-11-19T00:24:31.673Z,84.78
2023-11-19T00:26:58.395Z,84.82
2023-11-19T00:29:25.006Z,85.40
2023-11-19T00:31:51.723Z,85.46
2023-11-19T00:34:22.364Z,85.63
2023-11-19T00:36:49.504Z,85.48
2023-11-19T00:39:16.942Z,85.63
2023-11-19T00:41:43.742Z,85.36
2023-11-19T00:44:10.302Z,85.14
2023-11-19T00:46:38.097Z,84.73
2023-11-19T00:49:05.117Z,84.98
2023-11-19T00:51:32.602Z,84.94
2023-11-19T00:54:00.370Z,84.86
2023-11-19T00:56:26.981Z,84.70
2023-11-19T00:58:53.547Z,84.96
2023-11-19T01:01:20.293Z,84.70
2023-11-19T01:03:47.100Z,85.01
2023-11-19T01:06:15.196Z,84.98
2023-11-19T01:08:44.220Z,85.38
2023-11-19T01:11:21.941Z,85.13
2023-11-19T01:13:49.148Z,85.16
2023-11-19T01:16:15.842Z,85.18
2023-11-19T01:18:42.696Z,84.75
2023-11-19T01:21:09.614Z,84.26
2023-11-19T01:23:38.145Z,84.69
2023-11-19T01:26:06.597Z,84.74
2023-11-19T01:28:33.305Z,84.76
2023-11-19T01:30:59.971Z,85.35
2023-11-19T01:33:26.464Z,85.13
2023-11-19T01:35:52.959Z,85.89
2023-11-19T01:38:19.440Z,85.57
2023-11-19T01:40:46.019Z,85.63
2023-11-19T01:43:12.782Z,85.37
2023-11-19T01:45:40.839Z,85.55
2023-11-19T01:48:08.010Z,85.79
2023-11-19T01:50:35.037Z,85.70
2023-11-19T01:53:01.880Z,85.85
2023-11-19T01:55:29.737Z,85.74
2023-11-19T01:58:02.380Z,85.60
2023-11-19T02:00:29.326Z,85.81
2023-11-19T02:02:56.836Z,85.68
2023-11-19T02:05:24.303Z,85.78
2023-11-19T02:07:52.415Z,85.57
2023-11-19T02:10:20.352Z,85.32
2023-11-19T02:12:47.356Z,85.15
2023-11-19T02:15:14.052Z,85.64
2023-11-19T02:17:40.950Z,85.53
2023-11-19T02:20:10.391Z,85.33
2023-11-19T02:22:36.897Z,85.50
2023-11-19T02:25:08.305Z,85.17
2023-11-19T02:27:42.242Z,84.91
2023-11-19T02:30:09.762Z,85.26
2023-11-19T02:32:36.907Z,84.96
2023-11-19T02:37:32.973Z,85.08
2023-11-19T02:40:10.368Z,85.32
2023-11-19T02:42:37.156Z,85.00
2023-11-19T02:45:07.212Z,85.39
2023-11-19T02:47:34.716Z,85.40
2023-11-19T02:50:01.872Z,85.38
2023-11-19T02:52:28.502Z,85.38
2023-11-19T02:54:55.379Z,85.67
2023-11-19T02:57:22.827Z,85.42
2023-11-19T02:59:49.857Z,85.46
2023-11-19T03:02:19.055Z,85.19
2023-11-19T03:04:46.856Z,85.02
2023-11-19T03:07:39.365Z,85.44
2023-11-19T03:10:06.917Z,85.32
2023-11-19T03:12:33.468Z,85.38
2023-11-19T03:14:59.986Z,85.27
2023-11-19T03:17:26.601Z,85.31
2023-11-19T03:19:53.125Z,85.33
2023-11-19T03:22:19.711Z,85.25
2023-11-19T03:24:46.241Z,85.56
2023-11-19T03:27:14.025Z,85.93
2023-11-19T03:29:41.383Z,85.87
2023-11-19T03:32:08.029Z,85.97
2023-11-19T03:34:34.546Z,86.21
2023-11-19T03:37:01.176Z,86.29
2023-11-19T03:39:28.197Z,86.74
2023-11-19T03:41:55.054Z,86.39
2023-11-19T03:44:22.177Z,86.31
2023-11-19T03:46:48.766Z,85.86
2023-11-19T03:49:15.366Z,85.78
2023-11-19T03:51:41.995Z,85.71
2023-11-19T03:54:08.508Z,85.64
2023-11-19T03:56:35.099Z,86.17
2023-11-19T03:59:01.683Z,86.18
2023-11-19T04:01:28.312Z,86.50
2023-11-19T04:03:56.995Z,86.86
2023-11-19T04:06:24.051Z,86.46
2023-11-19T04:08:50.749Z,86.85
2023-11-19T04:11:18.234Z,86.84
2023-11-19T04:13:45.161Z,87.05
2023-11-19T04:16:11.781Z,86.74
2023-11-19T04:18:38.369Z,86.49
2023-11-19T04:21:07.735Z,86.68
2023-11-19T04:23:34.286Z,86.06
2023-11-19T04:28:34.548Z,86.14
2023-11-19T04:31:01.599Z,86.38
2023-11-19T04:33:28.229Z,85.87
2023-11-19T04:35:55.021Z,86.17
2023-11-19T04:38:21.488Z,86.43
2023-11-19T04:40:48.066Z,86.64
2023-11-19T04:43:14.697Z,86.39
2023-11-19T04:45:41.305Z,86.61
2023-11-19T04:48:07.848Z,86.62
2023-11-19T04:50:34.358Z,47.05
2023-11-19T04:53:01.427Z,43.73
2023-11-19T04:55:28.021Z,71.13
2023-11-19T04:57:55.535Z,78.05
2023-11-19T05:02:49.596Z,81.54
2023-11-19T05:05:17.352Z,81.71
2023-11-19T05:07:44.071Z,81.91
2023-11-19T05:10:10.905Z,82.21
2023-11-19T05:12:37.414Z,82.25
2023-11-19T05:15:04.269Z,82.37
2023-11-19T05:17:30.869Z,82.31
2023-11-19T05:19:57.384Z,82.07
2023-11-19T05:22:24.033Z,82.33
2023-11-19T05:24:50.814Z,82.48
2023-11-19T05:27:17.534Z,82.26
2023-11-19T05:29:44.850Z,82.69
2023-11-19T05:32:11.521Z,82.60
2023-11-19T05:34:38.067Z,82.96
2023-11-19T05:37:06.742Z,82.92
2023-11-19T05:39:33.425Z,83.12
2023-11-19T05:42:00.183Z,82.89
2023-11-19T05:44:26.888Z,83.48
2023-11-19T05:46:53.507Z,83.32
2023-11-19T05:49:20.063Z,83.43
2023-11-19T05:51:47.343Z,83.69
2023-11-19T05:54:14.641Z,83.93
2023-11-19T05:56:41.209Z,83.83
2023-11-19T05:59:16.300Z,83.73
2023-11-19T06:01:43.311Z,83.66
2023-11-19T06:04:09.895Z,83.41
2023-11-19T06:06:37.136Z,83.54
2023-11-19T06:11:35.361Z,83.21
2023-11-19T06:14:01.903Z,83.35
2023-11-19T06:16:28.462Z,83.42
2023-11-19T06:18:55.089Z,83.61
2023-11-19T06:21:21.745Z,83.78
2023-11-19T06:23:48.252Z,84.00
2023-11-19T06:26:15.228Z,83.88
2023-11-19T06:28:41.789Z,83.77
2023-11-19T06:31:08.596Z,83.98
2023-11-19T06:33:35.107Z,83.65
2023-11-19T06:36:01.686Z,83.59
2023-11-19T06:38:28.172Z,83.15
2023-11-19T06:40:55.050Z,83.34
2023-11-19T06:43:22.810Z,83.13
2023-11-19T06:45:49.416Z,83.25
2023-11-19T06:48:15.946Z,82.89
2023-11-19T06:50:42.430Z,82.63
2023-11-19T06:53:11.474Z,82.40
2023-11-19T06:55:38.167Z,82.26
2023-11-19T06:58:04.910Z,82.08
2023-11-19T07:00:33.595Z,81.79
2023-11-19T07:03:00.880Z,81.72
2023-11-19T07:05:27.638Z,81.99
2023-11-19T07:07:55.039Z,81.72
2023-11-19T07:10:21.589Z,82.02
2023-11-19T07:12:48.164Z,81.74
2023-11-19T07:15:14.822Z,81.29
2023-11-19T07:17:41.490Z,81.25
2023-11-19T07:20:08.626Z,81.37
2023-11-19T07:22:35.148Z,81.33
2023-11-19T07:25:02.361Z,81.15
2023-11-19T07:27:28.948Z,80.99
2023-11-19T07:29:55.497Z,80.70
2023-11-19T07:32:21.999Z,80.71
2023-11-19T07:34:48.511Z,80.25
2023-11-19T07:37:14.981Z,80.00
2023-11-19T07:39:42.572Z,79.40
2023-11-19T07:42:10.416Z,79.39
2023-11-19T07:44:37.874Z,79.42
2023-11-19T07:47:04.905Z,79.08
2023-11-19T07:49:32.052Z,78.74
2023-11-19T07:51:58.612Z,78.61
2023-11-19T07:54:25.304Z,78.14
2023-11-19T07:56:52.036Z,78.32
2023-11-19T07:59:18.596Z,78.18
2023-11-19T08:01:45.093Z,78.58
2023-11-19T08:04:12.494Z,78.88
2023-11-19T08:06:39.268Z,78.71
2023-11-19T08:09:06.680Z,79.02
2023-11-19T08:11:34.713Z,79.62
2023-11-19T08:14:01.318Z,79.74
2023-11-19T08:16:27.828Z,79.59
2023-11-19T08:18:55.010Z,79.90
2023-11-19T08:21:23.784Z,79.73
2023-11-19T08:23:50.411Z,79.50
2023-11-19T08:26:20.379Z,79.33
2023-11-19T08:28:48.745Z,79.01
2023-11-19T08:31:15.267Z,78.81
2023-11-19T08:33:41.767Z,78.97
2023-11-19T08:36:08.837Z,78.53
2023-11-19T08:38:35.380Z,78.33
2023-11-19T08:41:01.979Z,78.73
2023-11-19T08:43:28.857Z,78.07
2023-11-19T08:45:55.488Z,77.78
2023-11-19T08:48:22.150Z,77.21
2023-11-19T08:50:48.980Z,77.44
2023-11-19T08:53:15.536Z,77.10
2023-11-19T08:55:42.080Z,76.83
2023-11-19T08:58:08.634Z,77.28
2023-11-19T09:00:35.117Z,77.08
2023-11-19T09:03:01.773Z,76.23
2023-11-19T09:05:28.393Z,76.18
2023-11-19T09:07:54.945Z,76.07
2023-11-19T09:10:21.481Z,75.59
2023-11-19T09:12:47.970Z,75.67
2023-11-19T09:15:14.595Z,75.51
2023-11-19T09:17:42.098Z,75.77
2023-11-19T09:20:09.639Z,75.80
2023-11-19T09:22:36.307Z,75.58
2023-11-19T09:25:02.881Z,75.49
2023-11-19T09:27:29.368Z,75.15
2023-11-19T09:29:58.734Z,75.32
2023-11-19T09:32:25.982Z,74.76
2023-11-19T09:34:52.641Z,74.77
2023-11-19T09:37:22.524Z,74.48
2023-11-19T09:39:49.540Z,73.67
2023-11-19T09:42:17.009Z,73.58
2023-11-19T09:44:44.361Z,73.29
2023-11-19T09:47:13.731Z,73.31
2023-11-19T09:49:40.628Z,73.64
2023-11-19T09:52:07.292Z,73.31
2023-11-19T09:54:33.844Z,72.91
2023-11-19T09:57:05.254Z,73.56
2023-11-19T09:59:33.116Z,73.38
2023-11-19T10:02:00.782Z,73.29
2023-11-19T10:04:31.741Z,73.85
2023-11-19T10:06:58.439Z,73.43
2023-11-19T10:09:25.151Z,73.40
2023-11-19T10:11:51.730Z,73.50
2023-11-19T10:14:24.268Z,72.55
2023-11-19T10:16:50.871Z,73.42
2023-11-19T10:19:21.866Z,72.15
2023-11-19T10:21:48.683Z,72.13
2023-11-19T10:24:30.036Z,72.20
2023-11-19T10:26:58.514Z,72.85
2023-11-19T10:29:25.446Z,72.72
2023-11-19T10:32:23.489Z,73.04
2023-11-19T10:34:45.480Z,73.43
2023-11-19T10:37:33.766Z,73.39
2023-11-19T10:40:01.011Z,73.90
2023-11-19T10:42:27.857Z,74.13
2023-11-19T10:44:54.522Z,73.25
2023-11-19T10:47:38.127Z,72.47
2023-11-19T10:50:07.395Z,72.78
2023-11-19T10:52:34.465Z,72.52
2023-11-19T10:55:02.669Z,72.59
2023-11-19T10:57:31.240Z,74.10
2023-11-19T11:00:03.076Z,74.54
2023-11-19T11:02:36.108Z,74.95
2023-11-19T11:05:04.155Z,75.02
2023-11-19T11:07:39.521Z,75.07
2023-11-19T11:10:10.489Z,75.27
2023-11-19T11:12:39.170Z,75.86
2023-11-19T11:15:07.693Z,73.91
2023-11-19T11:17:35.390Z,72.83
2023-11-19T11:20:03.777Z,71.48
2023-11-19T11:25:24.838Z,72.04
2023-11-19T11:28:03.488Z,70.68
2023-11-19T11:30:47.518Z,70.99
2023-11-19T11:33:33.700Z,71.01
2023-11-19T11:36:11.992Z,70.96
2023-11-19T11:38:42.777Z,70.67
2023-11-19T11:41:31.746Z,69.46
2023-11-19T11:44:01.293Z,68.81
2023-11-19T11:46:37.751Z,68.34
2023-11-19T11:49:05.891Z,69.73
2023-11-19T11:51:44.964Z,70.43
2023-11-19T11:54:33.300Z,70.38
2023-11-19T11:59:42.711Z,69.37
2023-11-19T12:02:10.738Z,69.23
2023-11-19T12:04:38.642Z,69.51
2023-11-19T12:07:06.834Z,69.54
2023-11-19T12:09:34.536Z,68.70
2023-11-19T12:12:20.198Z,68.63
2023-11-19T12:15:06.820Z,68.41
2023-11-19T12:17:45.800Z,67.84
2023-11-19T12:20:12.922Z,68.03
2023-11-19T12:22:41.081Z,67.59
2023-11-19T12:25:09.969Z,67.51
2023-11-19T12:27:37.957Z,67.90
2023-11-19T12:30:07.898Z,68.20
2023-11-19T12:32:45.302Z,66.64
2023-11-19T12:35:12.793Z,65.56
2023-11-19T12:37:42.579Z,65.92
2023-11-19T12:40:18.795Z,66.38
2023-11-19T12:42:49.160Z,65.82
2023-11-19T12:45:17.367Z,67.32
2023-11-19T12:47:45.120Z,65.77
2023-11-19T12:50:11.744Z,66.28
2023-11-19T12:52:38.881Z,68.37
2023-11-19T12:55:07.633Z,68.51
2023-11-19T12:57:44.080Z,67.68
2023-11-19T13:00:22.330Z,68.91
2023-11-19T13:02:52.844Z,68.63
2023-11-19T13:05:34.073Z,68.34
2023-11-19T13:08:09.540Z,68.08
2023-11-19T13:10:57.153Z,68.73
2023-11-19T13:13:23.690Z,67.59
2023-11-19T13:15:50.810Z,67.14
2023-11-19T13:18:17.794Z,67.68
2023-11-19T13:20:44.596Z,68.48
2023-11-19T13:23:16.588Z,67.35
2023-11-19T13:25:44.824Z,67.26
2023-11-19T13:28:11.323Z,66.75
2023-11-19T13:30:37.832Z,65.74
2023-11-19T13:33:04.470Z,65.74
2023-11-19T13:35:31.055Z,66.29
2023-11-19T13:37:57.586Z,66.44
2023-11-19T13:40:25.866Z,65.25
2023-11-19T13:42:52.576Z,64.54
2023-11-19T13:45:19.618Z,63.37
2023-11-19T13:47:47.520Z,63.69
2023-11-19T13:50:15.682Z,63.38
2023-11-19T13:52:44.276Z,62.70
2023-11-19T13:55:11.643Z,62.54
2023-11-19T13:57:39.726Z,62.93
2023-11-19T14:00:12.151Z,62.03
2023-11-19T14:02:38.747Z,62.09
2023-11-19T14:05:05.707Z,62.81
2023-11-19T14:07:32.321Z,62.15
2023-11-19T14:09:59.309Z,61.54
2023-11-19T14:12:25.889Z,61.45
2023-11-19T14:14:52.448Z,60.36
2023-11-19T14:17:19.745Z,59.58
2023-11-19T14:19:46.380Z,58.35
2023-11-19T14:22:13.012Z,59.20
2023-11-19T14:24:41.887Z,58.48
2023-11-19T14:27:08.438Z,59.76
2023-11-19T14:29:35.244Z,58.60
2023-11-19T14:32:02.196Z,55.51
2023-11-19T14:34:28.982Z,54.69
2023-11-19T14:36:55.965Z,54.04
2023-11-19T14:39:22.487Z,56.63
2023-11-19T14:41:49.085Z,57.88
2023-11-19T14:44:15.618Z,59.90
2023-11-19T14:46:46.123Z,60.75
2023-11-19T14:49:12.650Z,61.25
2023-11-19T14:51:39.340Z,61.76
2023-11-19T14:54:06.684Z,61.64
2023-11-19T14:56:33.686Z,62.70
2023-11-19T14:59:00.209Z,62.90
2023-11-19T15:01:26.937Z,63.07
2023-11-19T15:03:54.754Z,63.87
2023-11-19T15:06:26.795Z,63.88
2023-11-19T15:08:53.417Z,64.03
2023-11-19T15:11:20.013Z,64.05
2023-11-19T15:13:46.539Z,63.74
2023-11-19T15:16:13.745Z,63.62
2023-11-19T15:18:40.431Z,64.28
2023-11-19T15:21:07.094Z,64.64
2023-11-19T15:23:33.690Z,64.70
2023-11-19T15:26:00.323Z,65.07
2023-11-19T15:28:26.869Z,65.48
2023-11-19T15:30:53.662Z,65.41
2023-11-19T15:33:20.188Z,65.48
2023-11-19T15:35:46.793Z,65.69
2023-11-19T15:38:13.366Z,66.14
2023-11-19T15:40:39.909Z,66.53
2023-11-19T15:43:07.697Z,66.88
2023-11-19T15:45:38.642Z,67.15
2023-11-19T15:48:06.977Z,67.15
2023-11-19T15:50:33.697Z,67.14
2023-11-19T15:53:00.496Z,67.52
2023-11-19T15:55:27.167Z,67.52
2023-11-19T15:57:53.672Z,67.58
2023-11-19T16:00:22.567Z,67.66
2023-11-19T16:02:51.591Z,67.77
2023-11-19T16:05:18.234Z,67.87
2023-11-19T16:07:44.784Z,68.19
2023-11-19T16:10:13.810Z,68.41
2023-11-19T16:12:41.520Z,68.41
2023-11-19T16:15:11.453Z,68.07
2023-11-19T16:17:39.807Z,68.21
2023-11-19T16:20:11.649Z,68.40
2023-11-19T16:22:39.171Z,68.63
2023-11-19T16:25:06.548Z,68.53
2023-11-19T16:27:33.281Z,68.77
2023-11-19T16:30:00.799Z,68.91
2023-11-19T16:32:27.443Z,69.13
2023-11-19T16:34:54.270Z,69.71
2023-11-19T16:37:23.859Z,69.26
2023-11-19T16:39:50.497Z,69.20
2023-11-19T16:42:20.622Z,69.35
2023-11-19T16:44:47.809Z,69.54
2023-11-19T16:47:14.371Z,69.39
2023-11-19T16:49:43.227Z,69.22
2023-11-19T16:52:11.175Z,68.95
2023-11-19T16:54:38.594Z,69.21
2023-11-19T16:57:05.516Z,69.40
2023-11-19T16:59:32.016Z,69.38
2023-11-19T17:01:58.524Z,69.49
2023-11-19T17:04:26.412Z,69.49
2023-11-19T17:06:52.932Z,69.20
2023-11-19T17:09:19.467Z,69.46
2023-11-19T17:11:46.287Z,69.74
2023-11-19T17:14:13.628Z,69.98
2023-11-19T17:16:41.278Z,69.97
2023-11-19T17:19:07.795Z,70.17
2023-11-19T17:21:34.341Z,70.07
2023-11-19T17:24:01.118Z,70.19
2023-11-19T17:26:44.695Z,70.49
2023-11-19T17:29:11.873Z,70.32
2023-11-19T17:31:38.733Z,69.88
2023-11-19T17:34:05.922Z,70.07
2023-11-19T17:36:32.595Z,70.18
2023-11-19T17:38:59.184Z,70.15
2023-11-19T17:41:25.927Z,70.35
2023-11-19T17:43:52.474Z,70.14
2023-11-19T17:46:19.081Z,70.07
2023-11-19T17:48:45.683Z,70.02
2023-11-19T17:51:12.290Z,70.60
2023-11-19T17:53:38.961Z,70.65
2023-11-19T17:56:06.353Z,70.37
2023-11-19T17:58:32.916Z,70.34
2023-11-19T18:00:59.845Z,70.44
2023-11-19T18:03:26.594Z,70.54
2023-11-19T18:05:53.999Z,70.44
2023-11-19T18:08:22.723Z,70.13
2023-11-19T18:10:50.517Z,69.95
2023-11-19T18:13:17.556Z,69.83
2023-11-19T18:15:44.884Z,70.12
2023-11-19T18:18:11.586Z,70.01
2023-11-19T18:20:38.332Z,70.15
2023-11-19T18:23:05.186Z,70.12
2023-11-19T18:25:32.951Z,69.92
2023-11-19T18:27:59.567Z,69.94
2023-11-19T18:30:26.059Z,70.22
2023-11-19T18:32:52.932Z,70.19
2023-11-19T18:35:24.738Z,70.50
2023-11-19T18:37:51.767Z,70.42
2023-11-19T18:40:22.235Z,70.86
2023-11-19T18:42:51.947Z,70.32
2023-11-19T18:45:22.705Z,70.31
2023-11-19T18:47:51.546Z,70.66
2023-11-19T18:50:18.629Z,70.90
2023-11-19T18:52:45.567Z,70.99
2023-11-19T18:55:12.191Z,70.52
2023-11-19T18:57:38.783Z,70.53
2023-11-19T19:00:08.483Z,70.64
2023-11-19T19:02:35.546Z,70.73
2023-11-19T19:05:02.579Z,70.85
2023-11-19T19:07:29.162Z,70.75
2023-11-19T19:09:57.274Z,71.21
2023-11-19T19:12:23.787Z,71.33
2023-11-19T19:14:50.695Z,71.03
2023-11-19T19:17:17.538Z,71.04
2023-11-19T19:19:44.492Z,70.99
2023-11-19T19:22:10.985Z,70.75
2023-11-19T19:24:40.984Z,70.70
2023-11-19T19:27:08.394Z,70.61
2023-11-19T19:29:35.178Z,70.97
2023-11-19T19:32:01.857Z,71.00
2023-11-19T19:34:30.022Z,70.77
2023-11-19T19:36:58.502Z,70.59
2023-11-19T19:39:25.661Z,70.59
2023-11-19T19:41:52.267Z,71.16
2023-11-19T19:44:20.714Z,70.78
2023-11-19T19:46:48.223Z,70.87
2023-11-19T19:49:14.756Z,70.77
2023-11-19T19:51:41.325Z,70.87
2023-11-19T19:54:07.884Z,70.76
2023-11-19T19:56:34.489Z,70.65
2023-11-19T19:59:01.069Z,70.65
2023-11-19T20:01:27.654Z,70.43
2023-11-19T20:03:54.339Z,70.47
2023-11-19T20:06:22.498Z,70.10
2023-11-19T20:08:50.145Z,69.63
2023-11-19T20:11:17.183Z,70.07
2023-11-19T20:13:43.689Z,69.92
2023-11-19T20:16:10.994Z,69.90
2023-11-19T20:18:37.697Z,70.11
2023-11-19T20:21:05.877Z,69.95
2023-11-19T20:23:32.992Z,70.42
2023-11-19T20:25:59.602Z,70.62
2023-11-19T20:28:26.142Z,70.97
2023-11-19T20:30:52.660Z,71.11
2023-11-19T20:33:19.318Z,71.04
2023-11-19T20:35:46.637Z,71.14
2023-11-19T20:38:14.201Z,71.27
2023-11-19T20:40:40.716Z,70.78
2023-11-19T20:43:07.343Z,71.12
2023-11-19T20:45:33.933Z,71.02
2023-11-19T20:48:00.634Z,70.67
2023-11-19T20:50:28.733Z,70.99
2023-11-19T20:52:57.681Z,71.52
2023-11-19T20:55:24.710Z,71.60
2023-11-19T20:57:52.041Z,71.97
2023-11-19T21:00:19.863Z,71.81
2023-11-19T21:02:46.558Z,71.68
2023-11-19T21:05:13.501Z,71.38
2023-11-19T21:07:41.303Z,71.28
2023-11-19T21:10:08.965Z,71.25
2023-11-19T21:12:35.720Z,71.19
2023-11-19T21:15:02.253Z,70.82
2023-11-19T21:17:28.816Z,70.82
2023-11-19T21:19:55.462Z,70.54
2023-11-19T21:22:22.009Z,70.40
2023-11-19T21:24:50.024Z,70.15
2023-11-19T21:27:17.758Z,70.24
2023-11-19T21:29:45.838Z,69.89
2023-11-19T21:32:12.562Z,69.60
2023-11-19T21:34:40.348Z,69.58
2023-11-19T21:37:07.574Z,69.46
2023-11-19T21:39:34.241Z,69.20
2023-11-19T21:42:00.929Z,68.47
2023-11-19T21:44:27.491Z,68.16
2023-11-19T21:46:54.071Z,68.16
2023-11-19T21:49:20.636Z,67.71
2023-11-19T21:51:47.197Z,67.16
2023-11-19T21:54:13.903Z,66.71
2023-11-19T21:56:40.392Z,65.84
2023-11-19T21:59:06.949Z,66.01
2023-11-19T22:01:33.814Z,66.38
2023-11-19T22:04:00.870Z,65.75
2023-11-19T22:06:28.166Z,65.48
2023-11-19T22:08:54.847Z,65.31
2023-11-19T22:11:24.951Z,65.15
2023-11-19T22:13:52.042Z,64.63
2023-11-19T22:16:18.680Z,64.73
2023-11-19T22:18:45.286Z,64.63
2023-11-19T22:21:12.365Z,64.82
2023-11-19T22:23:39.099Z,64.84
2023-11-19T22:26:05.640Z,65.11
2023-11-19T22:28:32.195Z,65.24
2023-11-19T22:30:58.821Z,65.19
2023-11-19T22:33:25.464Z,64.40
2023-11-19T22:35:52.021Z,64.30
2023-11-19T22:38:18.870Z,64.57
2023-11-19T22:40:45.398Z,64.80
2023-11-19T22:43:11.888Z,64.64
2023-11-19T22:45:38.410Z,64.94
2023-11-19T22:48:05.072Z,64.71
2023-11-19T22:50:32.868Z,64.53
2023-11-19T22:53:01.269Z,64.11
2023-11-19T22:55:27.787Z,64.55
2023-11-19T23:00:30.427Z,64.50
2023-11-19T23:03:04.384Z,64.68
2023-11-19T23:05:33.262Z,64.31
2023-11-19T23:08:01.213Z,63.88
2023-11-19T23:10:27.842Z,63.66
2023-11-19T23:12:54.677Z,63.69
2023-11-19T23:15:23.439Z,63.45
2023-11-19T23:17:49.937Z,63.47
2023-11-19T23:20:16.649Z,63.11
2023-11-19T23:22:44.336Z,63.20
2023-11-19T23:25:11.359Z,63.17
2023-11-19T23:27:38.835Z,63.05
2023-11-19T23:30:05.960Z,63.02
2023-11-19T23:32:32.541Z,63.12
2023-11-19T23:34:59.088Z,63.15
2023-11-19T23:37:26.292Z,63.49
2023-11-19T23:39:53.720Z,63.94
2023-11-19T23:42:23.041Z,63.80
2023-11-19T23:44:49.637Z,64.56
2023-11-19T23:47:16.106Z,64.20
2023-11-19T23:49:42.697Z,64.55
2023-11-19T23:52:10.512Z,64.57
2023-11-19T23:54:37.631Z,65.14
2023-11-19T23:57:04.981Z,65.38
2023-11-19T23:59:31.827Z,65.30
